Airmont, New York
Current Conditions -  °F | °C
As of 12:51 AM on Monday 20 Oct 2014 (Local Time) from KTEB Reporting Station
Clear Clear  
Wind Chill: 39°   Ceiling: Unl
Heat Index: 42°   Visibility: 10mi
Dew Point: 26°   Wind: 5mph
Humidity: 53%   Direction: 300°WNW
Pressure: 30.07"   Gusts: NA
Location:  41.1112°N, 74.0777°W
Report Text: KTEB 200451Z 30004KT 10SM CLR 06/M03 A3007 RMK AO2 SLP181 T00561033 401330056
Loading
Personal Weather Stations






























Interactive Weather Map
Tropical Storm Tracking
New forecast layout! Learn more

10-Day Weather Forecast

Advertisements
Track Severe Weather on mobile